createdAt,value
2023-04-20T00:01:32.969Z,99677.25
2023-04-20T00:04:01.022Z,99681.31
2023-04-20T00:06:32.380Z,99671.81
2023-04-20T00:09:00.852Z,99672.63
2023-04-20T00:11:28.492Z,99672.87
2023-04-20T00:13:56.055Z,99663.03
2023-04-20T00:16:23.444Z,99666.41
2023-04-20T00:18:51.615Z,99665.66
2023-04-20T00:21:23.940Z,99666.84
2023-04-20T00:23:51.867Z,99663.72
2023-04-20T00:26:19.264Z,99663.00
2023-04-20T00:28:46.940Z,99662.66
2023-04-20T00:31:14.619Z,99649.69
2023-04-20T00:33:42.062Z,99655.34
2023-04-20T00:36:09.572Z,99648.31
2023-04-20T00:38:37.209Z,99646.88
2023-04-20T00:41:04.604Z,99646.28
2023-04-20T00:43:32.021Z,99659.50
2023-04-20T00:45:59.698Z,99663.06
2023-04-20T00:48:27.594Z,99664.91
2023-04-20T00:50:54.964Z,99655.59
2023-04-20T00:53:22.592Z,99652.88
2023-04-20T00:55:50.809Z,99652.50
2023-04-20T00:58:18.244Z,99653.31
2023-04-20T01:00:45.881Z,99658.97
2023-04-20T01:03:13.747Z,99652.91
2023-04-20T01:05:41.271Z,99653.13
2023-04-20T01:08:08.886Z,99650.72
2023-04-20T01:10:36.274Z,99644.75
2023-04-20T01:13:07.080Z,99645.44
2023-04-20T01:15:35.404Z,99651.03
2023-04-20T01:18:03.614Z,99654.41
2023-04-20T01:20:31.546Z,99653.78
2023-04-20T01:23:00.491Z,99657.84
2023-04-20T01:25:27.967Z,99659.72
2023-04-20T01:27:55.338Z,99667.97
2023-04-20T01:30:22.996Z,99660.97
2023-04-20T01:32:50.504Z,99657.50
2023-04-20T01:35:17.855Z,99654.03
2023-04-20T01:37:45.831Z,99660.44
2023-04-20T01:40:13.572Z,99667.22
2023-04-20T01:42:40.950Z,99658.13
2023-04-20T01:45:08.841Z,99651.34
2023-04-20T01:47:36.713Z,99657.00
2023-04-20T01:50:04.207Z,99658.94
2023-04-20T01:52:31.946Z,99665.56
2023-04-20T01:54:59.359Z,99661.75
2023-04-20T01:57:26.732Z,99665.53
2023-04-20T01:59:54.592Z,99648.78
2023-04-20T02:02:22.016Z,99663.47
2023-04-20T02:04:49.656Z,99660.59
2023-04-20T02:07:17.103Z,99662.81
2023-04-20T02:09:44.535Z,99664.75
2023-04-20T02:12:12.193Z,99662.47
2023-04-20T02:14:40.146Z,99662.75
2023-04-20T02:17:10.717Z,99656.75
2023-04-20T02:19:38.309Z,99660.91
2023-04-20T02:22:05.770Z,99668.34
2023-04-20T02:24:33.400Z,99677.62
2023-04-20T02:27:01.460Z,99675.50
2023-04-20T02:29:28.842Z,99663.56
2023-04-20T02:31:56.778Z,99664.69
2023-04-20T02:34:24.455Z,99664.94
2023-04-20T02:36:51.839Z,99663.59
2023-04-20T02:39:19.844Z,99658.13
2023-04-20T02:41:47.426Z,99664.94
2023-04-20T02:44:14.813Z,99662.53
2023-04-20T02:46:42.472Z,99662.94
2023-04-20T02:49:10.033Z,99659.19
2023-04-20T02:51:37.994Z,99664.88
2023-04-20T02:54:05.853Z,99663.44
2023-04-20T02:56:33.244Z,99660.81
2023-04-20T02:59:01.277Z,99667.16
2023-04-20T03:01:29.150Z,99670.72
2023-04-20T03:03:58.601Z,99669.34
2023-04-20T03:06:26.656Z,99666.31
2023-04-20T03:08:54.504Z,99669.81
2023-04-20T03:11:23.447Z,99674.28
2023-04-20T03:13:50.996Z,99665.37
2023-04-20T03:16:19.174Z,99661.50
2023-04-20T03:18:46.722Z,99664.00
2023-04-20T03:21:14.937Z,99661.47
2023-04-20T03:23:43.521Z,99670.63
2023-04-20T03:26:11.289Z,99662.66
2023-04-20T03:28:39.664Z,99677.16
2023-04-20T03:31:07.675Z,99666.31
2023-04-20T03:33:35.084Z,99671.66
2023-04-20T03:36:04.472Z,99667.41
2023-04-20T03:38:32.116Z,99665.75
2023-04-20T03:40:59.489Z,99673.75
2023-04-20T03:43:28.086Z,99671.16
2023-04-20T03:45:55.773Z,99686.19
2023-04-20T03:48:25.236Z,99685.03
2023-04-20T03:50:52.799Z,99674.38
2023-04-20T03:53:20.469Z,99686.66
2023-04-20T03:55:47.880Z,99688.34
2023-04-20T03:58:15.820Z,99700.59
2023-04-20T04:00:43.977Z,99699.16
2023-04-20T04:03:12.166Z,99690.78
2023-04-20T04:05:40.755Z,99693.84
2023-04-20T04:08:08.209Z,99699.41
2023-04-20T04:10:36.217Z,99693.69
2023-04-20T04:13:04.106Z,99693.22
2023-04-20T04:15:32.046Z,99694.56
2023-04-20T04:18:00.102Z,99697.47
2023-04-20T04:20:27.729Z,99702.34
2023-04-20T04:22:55.368Z,99697.16
2023-04-20T04:25:23.922Z,99694.59
2023-04-20T04:27:51.350Z,99687.19
2023-04-20T04:30:20.002Z,99689.78
2023-04-20T04:32:49.067Z,99689.94
2023-04-20T04:35:16.821Z,99683.97
2023-04-20T04:37:44.205Z,99682.66
2023-04-20T04:40:12.013Z,99687.16
2023-04-20T04:42:39.630Z,99699.41
2023-04-20T04:45:07.645Z,99702.63
2023-04-20T04:47:36.089Z,99709.84
2023-04-20T04:50:04.501Z,99705.81
2023-04-20T04:52:35.370Z,99705.03
2023-04-20T04:55:03.865Z,99707.16
2023-04-20T04:57:31.258Z,99700.03
2023-04-20T04:59:58.655Z,99699.59
2023-04-20T05:02:26.599Z,99705.38
2023-04-20T05:04:54.106Z,99702.66
2023-04-20T05:07:21.561Z,99705.81
2023-04-20T05:09:49.169Z,99709.34
2023-04-20T05:12:16.579Z,99705.78
2023-04-20T05:14:43.961Z,99700.44
2023-04-20T05:17:11.590Z,99707.16
2023-04-20T05:19:38.941Z,99706.66
2023-04-20T05:22:06.293Z,99695.94
2023-04-20T05:24:33.901Z,99697.25
2023-04-20T05:27:01.769Z,99703.34
2023-04-20T05:29:29.163Z,99699.06
2023-04-20T05:31:56.873Z,99699.62
2023-04-20T05:34:24.258Z,99701.97
2023-04-20T05:36:52.132Z,99701.88
2023-04-20T05:39:19.986Z,99701.69
2023-04-20T05:41:47.802Z,99697.09
2023-04-20T05:44:15.165Z,99701.75
2023-04-20T05:46:42.787Z,99706.97
2023-04-20T05:49:10.408Z,99705.28
2023-04-20T05:51:37.758Z,99711.13
2023-04-20T05:54:05.618Z,99710.28
2023-04-20T05:56:32.967Z,99707.66
2023-04-20T05:59:00.490Z,99708.28
2023-04-20T06:01:28.095Z,99707.88
2023-04-20T06:03:56.301Z,99704.97
2023-04-20T06:06:23.790Z,99711.56
2023-04-20T06:08:52.206Z,99705.38
2023-04-20T06:11:19.841Z,99704.22
2023-04-20T06:13:47.222Z,99704.69
2023-04-20T06:16:14.620Z,99707.31
2023-04-20T06:18:42.276Z,99706.66
2023-04-20T06:21:10.522Z,99700.81
2023-04-20T06:23:38.335Z,99711.25
2023-04-20T06:26:08.843Z,99709.22
2023-04-20T06:28:36.960Z,99717.31
2023-04-20T06:31:04.703Z,99707.16
2023-04-20T06:33:32.487Z,99717.09
2023-04-20T06:35:59.908Z,99707.88
2023-04-20T06:38:27.329Z,99719.97
2023-04-20T06:40:57.435Z,99713.88
2023-04-20T06:43:24.793Z,99706.81
2023-04-20T06:45:52.174Z,99715.78
2023-04-20T06:48:31.688Z,99721.56
2023-04-20T06:51:01.348Z,99718.44
2023-04-20T06:53:28.970Z,99711.72
2023-04-20T06:55:56.851Z,99715.53
2023-04-20T06:58:24.297Z,99721.59
2023-04-20T07:00:51.945Z,99722.53
2023-04-20T07:03:19.693Z,99720.53
2023-04-20T07:05:47.238Z,99723.88
2023-04-20T07:08:18.036Z,99719.41
2023-04-20T07:10:45.372Z,99730.66
2023-04-20T07:13:12.732Z,99721.38
2023-04-20T07:15:40.380Z,99712.44
2023-04-20T07:18:07.887Z,99721.19
2023-04-20T07:20:35.295Z,99726.84
2023-04-20T07:23:02.957Z,99714.94
2023-04-20T07:25:33.015Z,99720.00
2023-04-20T07:28:03.192Z,99729.56
2023-04-20T07:30:31.877Z,99726.53
2023-04-20T07:32:59.734Z,99726.91
2023-04-20T07:35:27.777Z,99727.31
2023-04-20T07:37:55.641Z,99725.22
2023-04-20T07:40:23.137Z,99720.97
2023-04-20T07:42:50.816Z,99725.16
2023-04-20T07:45:19.063Z,99722.41
2023-04-20T07:47:47.655Z,99722.09
2023-04-20T07:50:15.286Z,99726.66
2023-04-20T07:52:44.450Z,99722.00
2023-04-20T07:55:12.915Z,99720.00
2023-04-20T07:57:40.334Z,99715.06
2023-04-20T08:00:09.751Z,99706.56
2023-04-20T08:02:40.357Z,99701.91
2023-04-20T08:05:10.311Z,99698.00
2023-04-20T08:07:38.323Z,99695.28
2023-04-20T08:10:06.903Z,99675.16
2023-04-20T08:12:34.522Z,99673.72
2023-04-20T08:15:04.525Z,99679.84
2023-04-20T08:17:35.228Z,99671.28
2023-04-20T08:20:04.715Z,99674.50
2023-04-20T08:22:33.558Z,99672.87
2023-04-20T08:25:00.949Z,99672.47
2023-04-20T08:27:30.537Z,99668.63
2023-04-20T08:29:58.094Z,99669.16
2023-04-20T08:32:26.767Z,99660.16
2023-04-20T08:34:55.245Z,99650.31
2023-04-20T08:37:23.239Z,99637.16
2023-04-20T08:39:50.763Z,99631.34
2023-04-20T08:42:18.490Z,99633.09
2023-04-20T08:44:45.816Z,99630.53
2023-04-20T08:47:13.203Z,99635.50
2023-04-20T08:49:41.173Z,99640.56
2023-04-20T08:52:10.908Z,99638.97
2023-04-20T08:54:45.838Z,99628.72
2023-04-20T08:57:17.276Z,99634.28
2023-04-20T08:59:44.837Z,99624.75
2023-04-20T09:02:12.707Z,99630.22
2023-04-20T09:04:40.974Z,99642.84
2023-04-20T09:07:17.478Z,99630.50
2023-04-20T09:09:58.387Z,99625.13
2023-04-20T09:12:25.928Z,99634.25
2023-04-20T09:14:53.721Z,99634.03
2023-04-20T09:17:31.986Z,99640.84
2023-04-20T09:20:00.005Z,99623.16
2023-04-20T09:22:31.760Z,99631.72
2023-04-20T09:24:59.507Z,99628.72
2023-04-20T09:27:27.354Z,99616.44
2023-04-20T09:30:01.432Z,99614.28
2023-04-20T09:32:29.462Z,99623.66
2023-04-20T09:34:57.097Z,99626.81
2023-04-20T09:37:25.584Z,99647.72
2023-04-20T09:39:54.164Z,99647.62
2023-04-20T09:42:21.609Z,99651.44
2023-04-20T09:44:49.198Z,99660.03
2023-04-20T09:47:17.921Z,99664.81
2023-04-20T09:49:46.933Z,99665.06
2023-04-20T09:52:21.106Z,99672.53
2023-04-20T09:54:48.715Z,99670.53
2023-04-20T09:57:16.358Z,99673.09
2023-04-20T09:59:43.941Z,99676.59
2023-04-20T10:02:12.541Z,99658.06
2023-04-20T10:04:58.887Z,99655.16
2023-04-20T10:07:27.211Z,99637.09
2023-04-20T10:10:05.226Z,99631.50
2023-04-20T10:12:32.853Z,99626.91
2023-04-20T10:15:01.334Z,99623.41
2023-04-20T10:17:32.241Z,99628.37
2023-04-20T10:19:59.723Z,99656.09
2023-04-20T10:22:32.848Z,99641.38
2023-04-20T10:25:01.269Z,99639.72
2023-04-20T10:27:32.095Z,99640.38
2023-04-20T10:30:11.875Z,99637.72
2023-04-20T10:32:41.905Z,99649.97
2023-04-20T10:35:10.879Z,99643.41
2023-04-20T10:37:47.992Z,99648.78
2023-04-20T10:40:15.655Z,99663.81
2023-04-20T10:42:43.986Z,99666.31
2023-04-20T10:45:11.868Z,99667.22
2023-04-20T10:47:40.948Z,99650.25
2023-04-20T10:50:11.162Z,99652.19
2023-04-20T10:52:39.907Z,99658.03
2023-04-20T10:55:17.725Z,99643.00
2023-04-20T10:57:45.575Z,99655.03
2023-04-20T11:00:17.290Z,99639.25
2023-04-20T11:02:54.906Z,99633.44
2023-04-20T11:05:23.927Z,99629.28
2023-04-20T11:07:58.446Z,99638.50
2023-04-20T11:10:40.323Z,99648.66
2023-04-20T11:13:08.180Z,99638.66
2023-04-20T11:15:35.625Z,99633.38
2023-04-20T11:18:09.568Z,99636.78
2023-04-20T11:20:37.878Z,99634.97
2023-04-20T11:23:05.977Z,99638.25
2023-04-20T11:25:33.528Z,99647.84
2023-04-20T11:28:08.920Z,99630.16
2023-04-20T11:30:42.562Z,99628.81
2023-04-20T11:33:10.904Z,99629.00
2023-04-20T11:35:39.105Z,99644.22
2023-04-20T11:38:06.490Z,99645.69
2023-04-20T11:40:34.481Z,99632.44
2023-04-20T11:43:02.171Z,99627.03
2023-04-20T11:45:33.820Z,99623.84
2023-04-20T11:48:03.455Z,99623.16
2023-04-20T11:50:30.932Z,99620.81
2023-04-20T11:52:58.432Z,99606.66
2023-04-20T11:55:26.114Z,99617.88
2023-04-20T11:57:53.518Z,99612.13
2023-04-20T12:00:22.025Z,99615.28
2023-04-20T12:02:49.856Z,99627.16
2023-04-20T12:05:17.332Z,99630.38
2023-04-20T12:07:44.697Z,99629.13
2023-04-20T12:10:14.541Z,99622.63
2023-04-20T12:12:42.699Z,99616.62
2023-04-20T12:15:10.471Z,99624.97
2023-04-20T12:17:38.166Z,99610.84
2023-04-20T12:20:09.350Z,99612.44
2023-04-20T12:22:36.696Z,99611.53
2023-04-20T12:25:05.481Z,99611.97
2023-04-20T12:27:32.879Z,99611.44
2023-04-20T12:30:00.335Z,99615.31
2023-04-20T12:32:28.262Z,99613.41
2023-04-20T12:34:56.017Z,99611.94
2023-04-20T12:37:23.453Z,99616.66
2023-04-20T12:39:51.358Z,99618.41
2023-04-20T12:42:19.007Z,99607.38
2023-04-20T12:44:46.524Z,99607.28
2023-04-20T12:47:14.283Z,99599.78
2023-04-20T12:49:41.616Z,99597.97
2023-04-20T12:52:09.082Z,99591.75
2023-04-20T12:54:36.798Z,99593.56
2023-04-20T12:57:04.418Z,99595.34
2023-04-20T12:59:31.762Z,99598.53
2023-04-20T13:01:59.531Z,99604.00
2023-04-20T13:04:27.043Z,99595.41
2023-04-20T13:06:54.486Z,99588.56
2023-04-20T13:09:26.807Z,99586.78
2023-04-20T13:11:54.746Z,99588.28
2023-04-20T13:14:22.852Z,99583.38
2023-04-20T13:16:51.350Z,99582.53
2023-04-20T13:19:20.504Z,99583.28
2023-04-20T13:21:48.129Z,99579.59
2023-04-20T13:24:15.839Z,99572.13
2023-04-20T13:26:43.471Z,99575.44
2023-04-20T13:29:11.292Z,99573.81
2023-04-20T13:31:38.849Z,99581.34
2023-04-20T13:34:06.329Z,99573.03
2023-04-20T13:36:33.955Z,99577.53
2023-04-20T13:39:01.821Z,99575.47
2023-04-20T13:41:29.220Z,99572.03
2023-04-20T13:43:57.801Z,99581.56
2023-04-20T13:46:25.329Z,99585.09
2023-04-20T13:48:52.776Z,99582.66
2023-04-20T13:51:20.437Z,99583.97
2023-04-20T13:53:48.795Z,99575.72
2023-04-20T13:56:16.716Z,99582.63
2023-04-20T13:58:44.473Z,99577.34
2023-04-20T14:01:12.595Z,99564.81
2023-04-20T14:03:41.675Z,99559.09
2023-04-20T14:06:09.161Z,99556.75
2023-04-20T14:08:36.911Z,99566.63
2023-04-20T14:11:04.616Z,99563.00
2023-04-20T14:13:32.060Z,99566.91
2023-04-20T14:15:59.459Z,99560.34
2023-04-20T14:18:27.237Z,99552.25
2023-04-20T14:20:54.644Z,99545.97
2023-04-20T14:23:22.662Z,99544.00
2023-04-20T14:25:50.921Z,99540.91
2023-04-20T14:28:18.471Z,99536.72
2023-04-20T14:30:45.999Z,99532.34
2023-04-20T14:33:13.738Z,99535.66
2023-04-20T14:35:41.158Z,99534.38
2023-04-20T14:38:08.479Z,99535.13
2023-04-20T14:40:36.140Z,99531.25
2023-04-20T14:43:03.484Z,99530.13
2023-04-20T14:45:30.900Z,99521.84
2023-04-20T14:47:58.536Z,99531.56
2023-04-20T14:50:28.783Z,99514.63
2023-04-20T14:52:56.222Z,99518.16
2023-04-20T14:55:25.729Z,99525.84
2023-04-20T14:57:57.136Z,99522.59
2023-04-20T15:00:25.317Z,99527.22
2023-04-20T15:02:53.134Z,99528.34
2023-04-20T15:05:20.985Z,99517.62
2023-04-20T15:07:50.692Z,99520.31
2023-04-20T15:10:20.834Z,99515.50
2023-04-20T15:12:48.264Z,99513.56
2023-04-20T15:15:16.224Z,99508.59
2023-04-20T15:17:47.948Z,99511.59
2023-04-20T15:20:15.681Z,99514.75
2023-04-20T15:22:43.090Z,99523.13
2023-04-20T15:25:10.430Z,99512.72
2023-04-20T15:27:38.041Z,99513.22
2023-04-20T15:30:06.160Z,99523.78
2023-04-20T15:32:36.468Z,99522.97
2023-04-20T15:35:04.237Z,99530.97
2023-04-20T15:37:31.814Z,99531.44
2023-04-20T15:39:59.263Z,99525.50
2023-04-20T15:42:27.504Z,99520.94
2023-04-20T15:44:54.867Z,99514.75
2023-04-20T15:47:22.306Z,99513.91
2023-04-20T15:49:50.009Z,99514.38
2023-04-20T15:52:17.419Z,99516.81
2023-04-20T15:54:46.830Z,99515.19
2023-04-20T15:57:14.449Z,99516.00
2023-04-20T15:59:41.779Z,99522.31
2023-04-20T16:02:09.269Z,99514.41
2023-04-20T16:04:37.121Z,99512.44
2023-04-20T16:07:04.681Z,99510.38
2023-04-20T16:09:32.036Z,99510.72
2023-04-20T16:11:59.616Z,99507.53
2023-04-20T16:14:26.984Z,99506.78
2023-04-20T16:16:54.764Z,99508.13
2023-04-20T16:19:22.381Z,99505.59
2023-04-20T16:21:49.748Z,99505.00
2023-04-20T16:24:17.387Z,99506.81
2023-04-20T16:26:46.269Z,99512.47
2023-04-20T16:29:13.627Z,99502.03
2023-04-20T16:31:41.118Z,99503.16
2023-04-20T16:34:08.769Z,99506.31
2023-04-20T16:36:36.131Z,99516.34
2023-04-20T16:39:05.896Z,99531.91
2023-04-20T16:41:33.526Z,99527.97
2023-04-20T16:44:00.930Z,99542.41
2023-04-20T16:46:28.298Z,99537.38
2023-04-20T16:48:55.961Z,99541.03
2023-04-20T16:51:23.371Z,99542.97
2023-04-20T16:53:50.774Z,99546.91
2023-04-20T16:56:18.407Z,99541.69
2023-04-20T16:58:45.866Z,99543.00
2023-04-20T17:01:13.366Z,99548.72
2023-04-20T17:03:41.534Z,99542.66
2023-04-20T17:06:09.814Z,99545.94
2023-04-20T17:08:40.476Z,99546.41
2023-04-20T17:11:08.100Z,99550.72
2023-04-20T17:13:35.473Z,99550.03
2023-04-20T17:16:02.911Z,99555.19
2023-04-20T17:18:30.791Z,99553.78
2023-04-20T17:20:58.231Z,99562.94
2023-04-20T17:23:26.553Z,99573.91
2023-04-20T17:25:54.722Z,99566.44
2023-04-20T17:28:22.086Z,99566.97
2023-04-20T17:30:49.405Z,99571.72
2023-04-20T17:33:17.037Z,99577.66
2023-04-20T17:35:46.333Z,99582.84
2023-04-20T17:38:13.996Z,99588.00
2023-04-20T17:40:41.653Z,99588.34
2023-04-20T17:43:09.040Z,99587.78
2023-04-20T17:45:36.855Z,99595.00
2023-04-20T17:48:05.372Z,99604.53
2023-04-20T17:50:33.733Z,99602.19
2023-04-20T17:53:06.709Z,99606.53
2023-04-20T17:55:34.895Z,99601.50
2023-04-20T17:58:02.316Z,99614.16
2023-04-20T18:00:29.694Z,99617.84
2023-04-20T18:02:57.420Z,99614.53
2023-04-20T18:05:24.902Z,99611.53
2023-04-20T18:07:52.258Z,99611.87
2023-04-20T18:10:19.907Z,99608.94
2023-04-20T18:12:47.285Z,99608.00
2023-04-20T18:15:14.662Z,99622.88
2023-04-20T18:17:43.426Z,99614.34
2023-04-20T18:20:10.941Z,99620.22
2023-04-20T18:22:38.459Z,99632.88
2023-04-20T18:25:06.421Z,99623.59
2023-04-20T18:27:33.773Z,99640.34
2023-04-20T18:30:01.291Z,99648.31
2023-04-20T18:32:30.939Z,99648.91
2023-04-20T18:34:59.191Z,99648.03
2023-04-20T18:37:26.547Z,99650.25
2023-04-20T18:39:54.200Z,99650.59
2023-04-20T18:42:21.618Z,99650.75
2023-04-20T18:44:52.946Z,99653.28
2023-04-20T18:47:22.139Z,99652.03
2023-04-20T18:49:49.507Z,99654.06
2023-04-20T18:52:18.506Z,99664.50
2023-04-20T18:54:47.517Z,99663.94
2023-04-20T18:57:15.028Z,99671.56
2023-04-20T18:59:42.403Z,99664.50
2023-04-20T19:02:10.290Z,99660.84
2023-04-20T19:04:37.761Z,99659.47
2023-04-20T19:07:05.159Z,99671.16
2023-04-20T19:09:32.762Z,99678.75
2023-04-20T19:12:01.467Z,99676.25
2023-04-20T19:14:28.811Z,99677.75
2023-04-20T19:16:56.565Z,99677.66
2023-04-20T19:19:24.120Z,99683.72
2023-04-20T19:21:51.487Z,99690.28
2023-04-20T19:24:19.353Z,99685.81
2023-04-20T19:26:46.976Z,99686.19
2023-04-20T19:29:14.315Z,99683.75
2023-04-20T19:31:42.133Z,99690.53
2023-04-20T19:34:10.597Z,99686.72
2023-04-20T19:36:37.977Z,99684.75
2023-04-20T19:39:07.138Z,99694.94
2023-04-20T19:41:34.632Z,99686.53
2023-04-20T19:44:05.095Z,99696.13
2023-04-20T19:46:33.490Z,99700.56
2023-04-20T19:49:01.069Z,99696.00
2023-04-20T19:51:28.445Z,99695.41
2023-04-20T19:53:56.489Z,99703.84
2023-04-20T19:56:23.864Z,99700.31
2023-04-20T19:58:51.367Z,99699.91
2023-04-20T20:01:19.437Z,99703.84
2023-04-20T20:03:47.260Z,99706.91
2023-04-20T20:06:14.678Z,99707.41
2023-04-20T20:08:42.050Z,99709.28
2023-04-20T20:11:09.744Z,99711.09
2023-04-20T20:13:37.123Z,99713.69
2023-04-20T20:16:04.702Z,99707.88
2023-04-20T20:18:32.360Z,99716.28
2023-04-20T20:20:59.695Z,99714.44
2023-04-20T20:23:27.060Z,99709.53
2023-04-20T20:25:54.685Z,99709.78
2023-04-20T20:28:22.017Z,99712.97
2023-04-20T20:30:49.390Z,99713.69
2023-04-20T20:33:17.019Z,99722.06
2023-04-20T20:35:44.445Z,99715.38
2023-04-20T20:38:12.083Z,99706.94
2023-04-20T20:40:40.014Z,99716.34
2023-04-20T20:43:07.366Z,99716.03
2023-04-20T20:45:34.831Z,99713.53
2023-04-20T20:48:02.527Z,99720.72
2023-04-20T20:50:29.901Z,99727.03
2023-04-20T20:52:57.359Z,99725.66
2023-04-20T20:55:25.053Z,99729.56
2023-04-20T20:57:52.397Z,99724.91
2023-04-20T21:00:20.302Z,99726.78
2023-04-20T21:02:48.063Z,99734.09
2023-04-20T21:05:15.611Z,99728.75
2023-04-20T21:07:43.018Z,99729.41
2023-04-20T21:10:11.806Z,99729.81
2023-04-20T21:12:39.230Z,99726.91
2023-04-20T21:15:07.398Z,99729.41
2023-04-20T21:17:35.214Z,99724.59
2023-04-20T21:20:05.663Z,99727.97
2023-04-20T21:22:33.007Z,99740.75
2023-04-20T21:25:00.622Z,99734.87
2023-04-20T21:27:28.013Z,99736.63
2023-04-20T21:29:55.361Z,99746.31
2023-04-20T21:32:23.845Z,99743.78
2023-04-20T21:34:52.168Z,99744.88
2023-04-20T21:37:19.543Z,99746.47
2023-04-20T21:39:47.155Z,99754.31
2023-04-20T21:42:14.486Z,99745.91
2023-04-20T21:44:41.855Z,99751.97
2023-04-20T21:47:09.497Z,99752.53
2023-04-20T21:49:36.848Z,99748.44
2023-04-20T21:52:04.257Z,99747.03
2023-04-20T21:54:34.064Z,99746.19
2023-04-20T21:57:02.113Z,99745.81
2023-04-20T21:59:29.438Z,99743.69
2023-04-20T22:01:57.232Z,99751.97
2023-04-20T22:04:28.508Z,99745.22
2023-04-20T22:06:56.095Z,99745.19
2023-04-20T22:09:23.483Z,99749.34
2023-04-20T22:11:51.492Z,99740.25
2023-04-20T22:14:18.889Z,99747.69
2023-04-20T22:16:46.353Z,99746.25
2023-04-20T22:19:14.003Z,99740.69
2023-04-20T22:21:42.992Z,99743.16
2023-04-20T22:24:10.449Z,99743.56
2023-04-20T22:26:38.139Z,99745.59
2023-04-20T22:29:05.526Z,99743.31
2023-04-20T22:31:33.088Z,99740.47
2023-04-20T22:34:00.708Z,99744.72
2023-04-20T22:36:28.196Z,99746.81
2023-04-20T22:38:55.616Z,99736.56
2023-04-20T22:41:23.287Z,99740.69
2023-04-20T22:43:50.669Z,99741.44
2023-04-20T22:46:18.075Z,99736.53
2023-04-20T22:48:48.545Z,99749.44
2023-04-20T22:51:17.201Z,99737.69
2023-04-20T22:53:44.636Z,99744.25
2023-04-20T22:56:12.286Z,99752.75
2023-04-20T22:58:39.637Z,99741.66
2023-04-20T23:01:07.026Z,99742.69
2023-04-20T23:03:34.882Z,99748.87
2023-04-20T23:06:02.820Z,99744.63
2023-04-20T23:08:30.218Z,99751.19
2023-04-20T23:10:57.848Z,99752.44
2023-04-20T23:13:26.214Z,99758.47
2023-04-20T23:15:53.902Z,99745.09
2023-04-20T23:18:21.680Z,99749.63
2023-04-20T23:20:49.064Z,99747.75
2023-04-20T23:23:16.427Z,99748.00
2023-04-20T23:25:44.112Z,99749.16
2023-04-20T23:28:11.482Z,99752.88
2023-04-20T23:30:38.833Z,99744.00
2023-04-20T23:33:06.502Z,99746.16
2023-04-20T23:35:34.139Z,99748.87
2023-04-20T23:38:02.794Z,99746.50
2023-04-20T23:40:30.792Z,99746.75
2023-04-20T23:42:58.181Z,99748.03
2023-04-20T23:45:25.596Z,99748.09
2023-04-20T23:47:53.354Z,99750.72
2023-04-20T23:50:20.951Z,99749.22
2023-04-20T23:52:48.303Z,99747.81
2023-04-20T23:55:15.880Z,99743.88
2023-04-20T23:57:43.345Z,99739.19
